createdAt,value
2022-09-24T00:01:18.933Z,48.30
2022-09-24T00:06:22.486Z,45.10
2022-09-24T00:11:26.830Z,42.00
2022-09-24T00:16:37.964Z,41.40
2022-09-24T00:21:41.098Z,41.80
2022-09-24T00:26:51.974Z,37.40
2022-09-24T00:31:53.913Z,36.00
2022-09-24T00:36:55.708Z,36.40
2022-09-24T00:41:59.671Z,36.80
2022-09-24T00:47:05.516Z,36.80
2022-09-24T00:52:07.784Z,32.50
2022-09-24T00:57:09.967Z,32.60
2022-09-24T01:02:12.790Z,29.50
2022-09-24T01:07:14.818Z,34.20
2022-09-24T01:12:44.735Z,34.80
2022-09-24T01:18:04.595Z,34.20
2022-09-24T01:23:37.746Z,36.70
2022-09-24T01:29:17.288Z,36.90
2022-09-24T01:34:27.019Z,35.50
2022-09-24T01:39:31.341Z,36.10
2022-09-24T01:44:34.985Z,34.70
2022-09-24T01:49:36.973Z,37.40
2022-09-24T01:54:42.431Z,34.50
2022-09-24T01:59:52.375Z,36.40
2022-09-24T02:05:32.671Z,34.80
2022-09-24T02:11:11.421Z,34.50
2022-09-24T02:21:19.849Z,38.30
2022-09-24T02:26:24.517Z,35.20
2022-09-24T02:31:38.052Z,38.70
2022-09-24T02:36:47.735Z,37.30
2022-09-24T02:41:50.151Z,38.60
2022-09-24T02:46:52.827Z,40.20
2022-09-24T02:51:56.039Z,39.10
2022-09-24T02:56:58.076Z,37.10
2022-09-24T03:02:07.178Z,38.50
2022-09-24T03:07:10.471Z,37.40
2022-09-24T03:12:12.719Z,34.60
2022-09-24T03:17:14.453Z,37.10
2022-09-24T03:22:16.391Z,32.00
2022-09-24T03:27:18.255Z,46.00
2022-09-24T03:32:20.184Z,42.00
2022-09-24T03:37:21.902Z,79.60
2022-09-24T03:42:23.625Z,35.20
2022-09-24T03:47:25.643Z,37.80
2022-09-24T03:52:27.658Z,35.70
2022-09-24T03:57:29.543Z,40.00
2022-09-24T04:02:31.351Z,44.50
2022-09-24T04:07:33.305Z,46.10
2022-09-24T04:12:34.994Z,42.30
2022-09-24T04:17:36.837Z,51.70
2022-09-24T04:22:39.426Z,42.30
2022-09-24T04:27:41.468Z,42.40
2022-09-24T04:32:43.402Z,42.00
2022-09-24T04:37:46.208Z,41.00
2022-09-24T04:42:48.273Z,41.70
2022-09-24T04:47:56.178Z,39.00
2022-09-24T04:52:57.984Z,40.60
2022-09-24T04:57:59.710Z,41.00
2022-09-24T05:03:05.284Z,42.80
2022-09-24T05:08:07.201Z,42.50
2022-09-24T05:13:09.693Z,42.60
2022-09-24T05:18:11.768Z,47.60
2022-09-24T05:23:13.615Z,49.10
2022-09-24T05:28:15.311Z,50.00
2022-09-24T05:33:17.147Z,44.80
2022-09-24T05:38:18.865Z,40.00
2022-09-24T05:43:20.673Z,38.90
2022-09-24T05:48:31.717Z,39.20
2022-09-24T05:53:41.161Z,43.10
2022-09-24T05:58:43.068Z,40.70
2022-09-24T06:03:45.043Z,41.10
2022-09-24T06:08:46.838Z,40.10
2022-09-24T06:13:49.693Z,38.30
2022-09-24T06:18:51.586Z,36.70
2022-09-24T06:23:53.376Z,38.80
2022-09-24T06:28:56.237Z,37.20
2022-09-24T06:34:00.614Z,36.30
2022-09-24T06:39:02.398Z,37.60
2022-09-24T06:44:04.275Z,35.80
2022-09-24T06:49:06.190Z,32.90
2022-09-24T06:54:07.965Z,33.10
2022-09-24T06:59:10.081Z,31.90
2022-09-24T07:04:12.024Z,30.80
2022-09-24T07:09:13.769Z,34.50
2022-09-24T07:14:15.785Z,33.20
2022-09-24T07:19:17.476Z,31.70
2022-09-24T07:24:19.220Z,32.80
2022-09-24T07:29:25.053Z,34.30
2022-09-24T07:34:27.176Z,30.20
2022-09-24T07:39:29.015Z,27.80
2022-09-24T07:44:50.713Z,26.10
2022-09-24T07:50:00.333Z,21.10
2022-09-24T07:55:02.047Z,20.10
2022-09-24T08:00:07.959Z,19.70
2022-09-24T08:05:18.179Z,18.40
2022-09-24T08:10:20.206Z,21.60
2022-09-24T08:15:22.867Z,19.10
2022-09-24T08:20:24.858Z,21.00
2022-09-24T08:25:26.612Z,20.80
2022-09-24T08:30:28.303Z,22.60
2022-09-24T08:35:30.159Z,20.70
2022-09-24T08:40:46.059Z,19.40
2022-09-24T08:46:30.712Z,17.20
2022-09-24T08:51:41.484Z,15.60
2022-09-24T08:57:03.696Z,15.30
2022-09-24T09:02:21.005Z,17.10
2022-09-24T09:07:32.618Z,9.30
2022-09-24T09:12:38.760Z,9.00
2022-09-24T09:17:54.832Z,9.40
2022-09-24T09:23:03.667Z,8.30
2022-09-24T09:28:15.704Z,9.50
2022-09-24T09:33:46.553Z,9.20
2022-09-24T09:39:06.098Z,14.30
2022-09-24T09:44:20.453Z,27.90
2022-09-24T09:49:36.351Z,11.00
2022-09-24T09:54:39.624Z,8.90
2022-09-24T09:59:45.531Z,9.60
2022-09-24T10:04:50.052Z,7.80
2022-09-24T10:10:13.859Z,6.90
2022-09-24T10:15:34.740Z,7.50
2022-09-24T10:20:50.612Z,7.10
2022-09-24T10:26:00.126Z,6.50
2022-09-24T10:31:07.219Z,7.10
2022-09-24T10:36:17.139Z,7.10
2022-09-24T10:41:27.262Z,7.70
2022-09-24T10:46:35.147Z,8.80
2022-09-24T10:51:49.914Z,8.60
2022-09-24T10:56:55.833Z,6.70
2022-09-24T11:02:26.226Z,5.70
2022-09-24T11:08:02.700Z,4.80
2022-09-24T11:13:26.034Z,5.20
2022-09-24T11:18:46.675Z,4.10
2022-09-24T11:24:09.836Z,3.90
2022-09-24T11:29:36.832Z,4.80
2022-09-24T11:35:21.811Z,4.90
2022-09-24T11:40:42.745Z,3.50
2022-09-24T11:45:50.557Z,3.40
2022-09-24T11:51:20.931Z,3.60
2022-09-24T11:56:50.726Z,3.80
2022-09-24T12:02:19.387Z,4.50
2022-09-24T12:07:37.974Z,4.50
2022-09-24T12:12:43.091Z,4.90
2022-09-24T12:18:09.072Z,4.60
2022-09-24T12:23:14.828Z,4.90
2022-09-24T12:28:39.359Z,4.40
2022-09-24T12:33:49.161Z,4.70
2022-09-24T12:39:02.565Z,4.60
2022-09-24T12:44:10.091Z,4.60
2022-09-24T12:49:34.400Z,4.30
2022-09-24T12:54:39.395Z,4.50
2022-09-24T12:59:56.646Z,4.30
2022-09-24T13:05:01.547Z,4.20
2022-09-24T13:10:18.533Z,5.00
2022-09-24T13:15:32.622Z,4.30
2022-09-24T13:20:36.300Z,4.40
2022-09-24T13:25:38.621Z,4.50
2022-09-24T13:30:42.986Z,4.70
2022-09-24T13:36:02.098Z,5.60
2022-09-24T13:41:26.047Z,4.60
2022-09-24T13:46:30.163Z,4.90
2022-09-24T13:51:38.119Z,5.20
2022-09-24T13:56:40.302Z,6.70
2022-09-24T14:01:44.163Z,6.60
2022-09-24T14:07:04.748Z,6.20
2022-09-24T14:12:21.334Z,5.40
2022-09-24T14:17:23.224Z,5.90
2022-09-24T14:22:34.052Z,6.00
2022-09-24T14:27:45.813Z,9.70
2022-09-24T14:32:53.481Z,8.40
2022-09-24T14:38:02.194Z,9.50
2022-09-24T14:43:03.989Z,9.90
2022-09-24T14:48:28.475Z,5.90
2022-09-24T14:53:37.809Z,10.60
2022-09-24T14:58:39.581Z,8.30
2022-09-24T15:03:51.935Z,5.50
2022-09-24T15:08:59.110Z,6.40
2022-09-24T15:14:19.825Z,8.10
2022-09-24T15:19:24.887Z,6.30
2022-09-24T15:24:26.923Z,24.80
2022-09-24T15:29:28.659Z,10.70
2022-09-24T15:34:30.358Z,23.70
2022-09-24T15:39:32.303Z,17.10
2022-09-24T15:44:34.409Z,19.00
2022-09-24T15:49:50.682Z,17.00
2022-09-24T15:55:14.307Z,11.70
2022-09-24T16:00:18.912Z,15.70
2022-09-24T16:05:21.094Z,13.50
2022-09-24T16:10:22.932Z,10.10
2022-09-24T16:15:24.843Z,9.60
2022-09-24T16:20:26.825Z,8.80
2022-09-24T16:25:29.238Z,8.40
2022-09-24T16:30:38.293Z,8.20
2022-09-24T16:35:40.579Z,11.90
2022-09-24T16:40:42.759Z,12.60
2022-09-24T16:45:46.867Z,14.80
2022-09-24T16:50:57.752Z,30.30
2022-09-24T16:56:16.014Z,34.50
2022-09-24T17:01:21.377Z,35.00
2022-09-24T17:06:25.848Z,42.60
2022-09-24T17:11:27.685Z,42.10
2022-09-24T17:16:30.448Z,47.70
2022-09-24T17:21:33.075Z,43.70
2022-09-24T17:26:38.655Z,45.60
2022-09-24T17:31:40.815Z,44.30
2022-09-24T17:36:49.721Z,46.00
2022-09-24T17:42:05.171Z,60.10
2022-09-24T17:47:07.911Z,57.70
2022-09-24T17:52:09.798Z,53.30
2022-09-24T17:57:11.610Z,69.30
2022-09-24T18:02:15.538Z,69.30
2022-09-24T18:07:19.470Z,61.90
2022-09-24T18:12:21.544Z,41.20
2022-09-24T18:17:23.859Z,40.00
2022-09-24T18:22:25.900Z,44.80
2022-09-24T18:27:28.305Z,49.60
2022-09-24T18:32:31.924Z,45.80
2022-09-24T18:37:38.168Z,44.80
2022-09-24T18:42:40.179Z,44.50
2022-09-24T18:47:42.262Z,56.00
2022-09-24T18:52:44.435Z,51.70
2022-09-24T18:57:46.432Z,56.80
2022-09-24T19:02:48.898Z,50.00
2022-09-24T19:07:51.106Z,75.50
2022-09-24T19:12:55.322Z,55.60
2022-09-24T19:18:04.312Z,53.60
2022-09-24T19:23:08.567Z,51.20
2022-09-24T19:28:12.976Z,56.90
2022-09-24T19:33:17.247Z,54.00
2022-09-24T19:38:19.059Z,53.70
2022-09-24T19:43:22.495Z,51.60
2022-09-24T19:48:26.059Z,47.80
2022-09-24T19:53:29.710Z,48.60
2022-09-24T19:58:31.891Z,59.30
2022-09-24T20:03:37.456Z,51.30
2022-09-24T20:08:39.740Z,59.40
2022-09-24T20:13:46.402Z,64.10
2022-09-24T20:18:50.469Z,40.90
2022-09-24T20:23:54.594Z,96.40
2022-09-24T20:28:56.744Z,79.20
2022-09-24T20:34:01.780Z,62.70
2022-09-24T20:39:04.203Z,68.00
2022-09-24T20:44:06.011Z,62.20
2022-09-24T20:49:07.921Z,69.40
2022-09-24T20:54:16.275Z,74.20
2022-09-24T20:59:18.152Z,60.90
2022-09-24T21:04:23.521Z,80.40
2022-09-24T21:09:25.307Z,74.00
2022-09-24T21:14:29.004Z,66.60
2022-09-24T21:19:32.526Z,69.70
2022-09-24T21:24:34.949Z,70.10
2022-09-24T21:29:38.129Z,68.80
2022-09-24T21:34:41.655Z,83.00
2022-09-24T21:39:44.971Z,87.60
2022-09-24T21:44:48.042Z,67.80
2022-09-24T21:49:50.146Z,64.30
2022-09-24T21:54:51.848Z,64.30
2022-09-24T21:59:59.408Z,60.80
2022-09-24T22:10:03.813Z,64.40
2022-09-24T22:15:06.899Z,64.90
2022-09-24T22:20:09.426Z,56.20
2022-09-24T22:25:11.126Z,55.80
2022-09-24T22:30:13.642Z,59.20
2022-09-24T22:35:36.422Z,57.50
2022-09-24T22:40:40.662Z,48.70
2022-09-24T22:46:02.699Z,55.80
2022-09-24T22:51:16.185Z,74.10
2022-09-24T22:56:21.273Z,62.50
2022-09-24T23:01:46.698Z,58.40
2022-09-24T23:07:02.049Z,58.40
2022-09-24T23:12:03.891Z,55.70
2022-09-24T23:17:05.752Z,54.70
2022-09-24T23:22:07.670Z,53.40
2022-09-24T23:27:10.483Z,49.80
2022-09-24T23:32:14.115Z,51.50
2022-09-24T23:37:16.022Z,49.10
2022-09-24T23:42:17.901Z,49.30
2022-09-24T23:47:19.628Z,48.10
2022-09-24T23:52:21.608Z,45.60
2022-09-24T23:57:23.408Z,41.70
